Time;durP1;ratioP1;P1;durP2;ratioP2;P2;SDS_P1;SDS_P2;PMS_P1;PMS_P2;Temp;Humidity;BMP_temperature;BMP_pressure;BME280_temperature;BME280_humidity;BME280_pressure;Samples;Min_cycle;Max_cycle;Signal;HPM_P1;HPM_P2
2024/03/18 00:00:25;;;;;;;0.70;0.43;;;;;;;8.60;48.19;100128.91;4454850;31;34295;-82
2024/03/18 00:02:53;;;;;;;5.10;1.05;;;;;;;8.35;48.93;100128.72;4470530;31;32971;-82
2024/03/18 00:05:21;;;;;;;0.00;0.00;;;;;;;8.14;49.46;100124.97;4466038;31;32041;-83
2024/03/18 00:07:49;;;;;;;1.27;1.17;;;;;;;8.32;49.26;100119.19;4470783;31;32611;-83
2024/03/18 00:10:17;;;;;;;0.30;0.30;;;;;;;8.27;49.37;100120.22;4471769;32;35583;-86
2024/03/18 00:12:45;;;;;;;0.20;0.20;;;;;;;8.14;49.56;100114.44;4467448;31;33237;-86
2024/03/18 00:15:14;;;;;;;0.98;0.88;;;;;;;8.11;49.64;100117.16;4467290;31;33605;-86
2024/03/18 00:17:42;;;;;;;7.45;1.30;;;;;;;8.05;49.92;100119.97;4458292;31;34057;-86
2024/03/18 00:20:10;;;;;;;1.73;1.08;;;;;;;8.28;48.61;100116.69;4474174;32;33374;-83
2024/03/18 00:22:40;;;;;;;1.58;0.50;;;;;;;8.46;47.64;100109.13;4472700;31;32210;-83
2024/03/18 00:25:08;;;;;;;0.28;0.28;;;;;;;8.32;48.28;100106.03;4476865;31;33925;-83
2024/03/18 00:27:34;;;;;;;0.20;0.20;;;;;;;8.24;48.66;100102.75;4458134;31;32957;-83
2024/03/18 00:30:01;;;;;;;0.10;0.10;;;;;;;8.25;48.57;100109.72;4466988;31;32342;-83
2024/03/18 00:32:31;;;;;;;0.13;0.13;;;;;;;8.46;47.64;100109.13;4459292;31;33947;-83
2024/03/18 00:34:58;;;;;;;0.37;0.37;;;;;;;8.35;48.25;100108.53;4463335;31;33073;-83
2024/03/18 00:37:24;;;;;;;1.45;0.75;;;;;;;8.12;49.72;100111.00;4467163;31;32640;-83
2024/03/18 00:39:52;;;;;;;0.00;0.00;;;;;;;8.23;49.33;100108.06;4456508;31;32745;-83
2024/03/18 00:42:19;;;;;;;0.00;0.00;;;;;;;8.17;49.51;100109.09;4477221;31;33340;-83
2024/03/18 00:44:45;;;;;;;1.25;1.15;;;;;;;8.42;48.28;100098.75;4470265;31;32823;-83
2024/03/18 00:47:12;;;;;;;1.40;1.30;;;;;;;8.58;47.67;100104.41;4471299;31;34626;-83
2024/03/18 00:49:39;;;;;;;1.52;0.75;;;;;;;8.40;48.26;100106.69;4487150;31;33738;-83
2024/03/18 00:52:06;;;;;;;0.20;0.20;;;;;;;8.11;49.19;100106.62;4471767;31;32972;-83
2024/03/18 00:54:33;;;;;;;0.30;0.30;;;;;;;8.12;49.74;100103.12;4469062;31;33767;-83
2024/03/18 00:57:00;;;;;;;0.30;0.22;;;;;;;8.03;50.10;100100.75;4454224;31;33910;-83
2024/03/18 00:59:29;;;;;;;0.10;0.10;;;;;;;8.18;49.62;100098.53;4475928;31;31431;-83
2024/03/18 01:01:56;;;;;;;0.00;0.00;;;;;;;8.20;49.48;100093.22;4458861;31;33592;-83
2024/03/18 01:04:23;;;;;;;0.00;0.00;;;;;;;8.06;49.81;100084.87;4489842;31;34159;-83
2024/03/18 01:06:49;;;;;;;0.10;0.10;;;;;;;8.14;49.42;100094.25;4468346;31;34047;-83
2024/03/18 01:09:17;;;;;;;0.20;0.20;;;;;;;8.13;49.39;100086.44;4473536;31;33885;-83
2024/03/18 01:11:44;;;;;;;3.55;0.88;;;;;;;8.16;48.95;100081.06;4494385;31;33427;-83
2024/03/18 01:14:11;;;;;;;0.00;0.00;;;;;;;8.28;48.81;100085.09;4473282;31;31612;-83
2024/03/18 01:16:38;;;;;;;0.00;0.00;;;;;;;8.29;48.46;100082.41;4464170;31;34820;-83
2024/03/18 01:19:04;;;;;;;3.95;1.50;;;;;;;8.24;48.49;100084.34;4467758;31;33548;-83
2024/03/18 01:21:31;;;;;;;0.10;0.10;;;;;;;8.22;48.75;100083.53;4465902;31;32793;-83
2024/03/18 01:23:58;;;;;;;0.47;0.47;;;;;;;8.23;49.48;100077.34;4480566;31;34003;-83
2024/03/18 01:26:24;;;;;;;0.00;0.00;;;;;;;7.98;50.37;100076.34;4485743;31;33808;-82
2024/03/18 01:28:50;;;;;;;0.77;0.77;;;;;;;8.02;50.19;100077.97;4472228;31;33095;-83
2024/03/18 01:31:18;;;;;;;0.98;0.28;;;;;;;8.05;50.26;100072.62;4451412;31;33611;-83
2024/03/18 01:33:45;;;;;;;0.15;0.15;;;;;;;7.87;50.15;100068.75;4467175;31;33727;-83
2024/03/18 01:36:12;;;;;;;3.83;0.47;;;;;;;7.60;51.26;100080.91;4477719;31;33144;-83
2024/03/18 01:38:39;;;;;;;0.45;0.45;;;;;;;7.43;51.84;100081.34;4459981;31;34185;-83
2024/03/18 01:41:05;;;;;;;0.30;0.30;;;;;;;7.46;51.80;100078.66;4470967;31;33939;-82
2024/03/18 01:43:35;;;;;;;0.10;0.10;;;;;;;7.32;52.12;100079.00;4470283;31;33884;-82
2024/03/18 01:46:09;;;;;;;0.50;0.50;;;;;;;7.35;51.96;100089.41;4476007;31;35319;-83
2024/03/18 01:48:35;;;;;;;0.10;0.10;;;;;;;7.49;51.70;100082.94;4459058;31;32367;-83
2024/03/18 01:51:03;;;;;;;0.20;0.20;;;;;;;7.53;51.12;100084.59;4475253;31;34204;-84
2024/03/18 01:53:29;;;;;;;0.00;0.00;;;;;;;7.43;51.36;100090.09;4473803;31;34459;-83
2024/03/18 01:55:56;;;;;;;0.08;0.08;;;;;;;7.35;51.56;100086.78;4459589;31;33341;-83
2024/03/18 01:58:23;;;;;;;0.10;0.10;;;;;;;7.27;51.73;100078.28;4468604;31;33758;-83
2024/03/18 02:00:50;;;;;;;0.10;0.10;;;;;;;7.26;51.82;100076.50;4478608;31;33569;-83
2024/03/18 02:03:23;;;;;;;0.00;0.00;;;;;;;7.15;51.81;100068.91;4440140;31;34975;-83
2024/03/18 02:05:49;;;;;;;0.25;0.25;;;;;;;7.10;51.76;100075.19;4470083;31;33683;-83
2024/03/18 02:08:16;;;;;;;0.10;0.10;;;;;;;7.15;51.84;100062.81;4461553;31;33321;-83
2024/03/18 02:10:43;;;;;;;5.62;0.52;;;;;;;6.95;52.40;100065.09;4459614;31;34245;-83
2024/03/18 02:13:10;;;;;;;0.17;0.17;;;;;;;7.10;52.43;100064.69;4465931;31;33637;-83
2024/03/18 02:15:37;;;;;;;0.15;0.15;;;;;;;7.02;52.41;100062.25;4477689;31;32816;-83
2024/03/18 02:18:04;;;;;;;0.00;0.00;;;;;;;7.29;50.98;100059.84;4455157;31;31630;-83
2024/03/18 02:20:31;;;;;;;3.25;0.28;;;;;;;7.24;51.05;100057.31;4460581;31;32936;-83
2024/03/18 02:22:57;;;;;;;0.37;0.37;;;;;;;7.42;50.03;100051.59;4474884;31;32548;-83
2024/03/18 02:25:24;;;;;;;0.10;0.10;;;;;;;7.54;49.73;100052.16;4444073;31;35422;-83
2024/03/18 02:27:50;;;;;;;0.00;0.00;;;;;;;7.48;49.94;100050.56;4473786;31;34161;-81
2024/03/18 02:30:17;;;;;;;0.00;0.00;;;;;;;7.49;50.05;100046.16;4482715;31;34271;-81
2024/03/18 02:32:44;;;;;;;1.75;0.80;;;;;;;7.38;50.27;100049.94;4477758;31;33036;-81
2024/03/18 02:35:13;;;;;;;0.60;0.60;;;;;;;7.48;49.84;100042.66;4480568;31;32635;-81
2024/03/18 02:37:39;;;;;;;0.13;0.13;;;;;;;7.37;50.71;100042.97;4465600;31;34114;-81
2024/03/18 02:40:08;;;;;;;0.20;0.20;;;;;;;7.40;50.38;100037.63;4485495;31;33436;-81
2024/03/18 02:42:38;;;;;;;0.90;0.90;;;;;;;7.42;50.19;100046.34;4485471;31;34174;-81
2024/03/18 02:45:08;;;;;;;0.00;0.00;;;;;;;7.46;50.05;100043.63;4470552;31;33199;-81
2024/03/18 02:47:39;;;;;;;0.55;0.55;;;;;;;7.31;50.88;100043.16;4469691;31;32472;-81
2024/03/18 02:50:07;;;;;;;0.73;0.55;;;;;;;7.44;50.28;100041.88;4485949;31;34034;-81
2024/03/18 02:52:37;;;;;;;0.37;0.37;;;;;;;7.48;50.15;100044.44;4474646;31;33875;-81
2024/03/18 02:55:04;;;;;;;0.00;0.00;;;;;;;7.35;50.41;100039.50;4471851;31;34463;-81
2024/03/18 02:57:31;;;;;;;2.53;0.82;;;;;;;7.33;51.11;100041.31;4463892;31;32795;-81
2024/03/18 02:59:59;;;;;;;0.00;0.00;;;;;;;7.57;49.40;100033.69;4469735;31;33415;-83
2024/03/18 03:02:26;;;;;;;0.13;0.13;;;;;;;7.35;50.10;100034.25;4486915;31;34136;-83
2024/03/18 03:04:53;;;;;;;0.20;0.20;;;;;;;7.40;50.44;100042.00;4454443;31;32872;-82
2024/03/18 03:07:20;;;;;;;0.10;0.10;;;;;;;7.36;50.38;100041.25;4452688;31;34622;-83
2024/03/18 03:09:47;;;;;;;0.90;0.80;;;;;;;7.37;50.05;100037.72;4488382;31;33996;-83
2024/03/18 03:12:13;;;;;;;0.00;0.00;;;;;;;7.51;49.58;100037.34;4457497;31;31714;-83
2024/03/18 03:14:41;;;;;;;0.37;0.37;;;;;;;7.51;49.53;100034.72;4460311;31;35391;-83
2024/03/18 03:17:08;;;;;;;0.10;0.10;;;;;;;7.32;50.30;100038.75;4469731;31;33881;-83
2024/03/18 03:19:35;;;;;;;0.03;0.03;;;;;;;7.43;49.75;100034.91;4474439;31;32235;-83
2024/03/18 03:22:03;;;;;;;0.10;0.10;;;;;;;7.35;50.56;100033.41;4449573;31;35281;-84
2024/03/18 03:24:30;;;;;;;0.52;0.47;;;;;;;7.34;50.33;100027.28;4459971;31;33812;-83
2024/03/18 03:26:57;;;;;;;0.05;0.05;;;;;;;7.22;50.47;100027.63;4461778;31;32561;-84
2024/03/18 03:29:23;;;;;;;0.22;0.22;;;;;;;7.47;49.75;100032.22;4456928;31;33699;-83
2024/03/18 03:31:50;;;;;;;4.78;0.32;;;;;;;7.30;50.06;100028.25;4471614;31;34111;-83
2024/03/18 03:34:16;;;;;;;1.05;0.85;;;;;;;7.44;49.68;100027.88;4456780;31;33364;-83
2024/03/18 03:36:44;;;;;;;0.30;0.30;;;;;;;7.18;50.29;100026.84;4459699;31;34846;-83
2024/03/18 03:39:11;;;;;;;0.68;0.68;;;;;;;7.30;50.35;100036.13;4472464;31;33826;-83
2024/03/18 03:41:38;;;;;;;1.85;0.73;;;;;;;7.21;50.30;100040.78;4486353;31;33957;-83
2024/03/18 03:44:05;;;;;;;0.20;0.20;;;;;;;7.32;50.26;100036.97;4473433;31;35418;-83
2024/03/18 03:46:31;;;;;;;0.62;0.62;;;;;;;7.32;50.03;100039.59;4486954;31;33849;-83
2024/03/18 03:48:58;;;;;;;0.03;0.03;;;;;;;7.04;51.00;100042.09;4457978;31;32225;-83
2024/03/18 03:51:25;;;;;;;0.10;0.10;;;;;;;7.25;50.27;100037.16;4455246;31;34249;-83
2024/03/18 03:53:51;;;;;;;0.00;0.00;;;;;;;7.21;50.65;100040.78;4472678;31;33032;-82
2024/03/18 03:56:18;;;;;;;0.08;0.08;;;;;;;6.96;51.29;100037.91;4490549;31;33481;-83
2024/03/18 03:58:50;;;;;;;1.23;0.32;;;;;;;7.05;51.66;100042.94;4459132;31;32615;-81
2024/03/18 04:01:18;;;;;;;0.10;0.10;;;;;;;7.01;51.47;100044.78;4472534;31;32475;-81
2024/03/18 04:03:46;;;;;;;0.10;0.10;;;;;;;7.23;50.82;100031.09;4470077;31;33693;-81
2024/03/18 04:06:12;;;;;;;0.15;0.15;;;;;;;7.62;49.72;100032.66;4466436;31;33482;-81
2024/03/18 04:08:39;;;;;;;0.03;0.03;;;;;;;7.31;50.23;100032.63;4473665;31;33029;-82
2024/03/18 04:11:06;;;;;;;0.17;0.17;;;;;;;7.17;51.12;100034.75;4457496;31;32497;-81
2024/03/18 04:13:32;;;;;;;0.20;0.20;;;;;;;7.37;50.40;100032.47;4483802;31;33678;-81
2024/03/18 04:15:59;;;;;;;0.03;0.03;;;;;;;7.39;50.23;100033.28;4484453;31;33980;-81
2024/03/18 04:18:25;;;;;;;0.10;0.10;;;;;;;7.36;50.12;100033.37;4453518;31;34910;-81
2024/03/18 04:20:53;;;;;;;10.38;1.08;;;;;;;7.23;50.47;100033.72;4476728;31;33721;-81
2024/03/18 04:23:20;;;;;;;0.55;0.55;;;;;;;7.30;50.48;100036.13;4472792;31;33031;-81
2024/03/18 04:25:47;;;;;;;0.10;0.10;;;;;;;7.06;50.96;100036.78;4477853;31;33027;-81
2024/03/18 04:28:14;;;;;;;0.10;0.10;;;;;;;7.06;51.16;100042.03;4485068;31;32603;-81
2024/03/18 04:30:42;;;;;;;0.17;0.17;;;;;;;7.10;51.10;100038.44;4469820;31;33930;-82
2024/03/18 04:33:09;;;;;;;1.87;0.43;;;;;;;7.23;50.80;100039.00;4474289;31;32973;-81
2024/03/18 04:35:35;;;;;;;0.03;0.03;;;;;;;7.26;50.53;100036.25;4482244;31;34457;-82
2024/03/18 04:38:02;;;;;;;0.00;0.00;;;;;;;7.24;50.51;100032.81;4449655;31;33660;-81
2024/03/18 04:40:28;;;;;;;0.55;0.55;;;;;;;7.12;51.21;100036.63;4481653;31;33484;-84
2024/03/18 04:42:56;;;;;;;0.10;0.10;;;;;;;7.26;50.87;100038.88;4474509;31;33908;-84
2024/03/18 04:45:22;;;;;;;0.15;0.15;;;;;;;7.28;50.41;100037.09;4480706;31;33941;-84
2024/03/18 04:47:51;;;;;;;0.52;0.52;;;;;;;7.17;50.70;100035.62;4461181;31;34598;-84
2024/03/18 04:50:22;;;;;;;0.45;0.45;;;;;;;7.27;50.71;100044.13;4468328;31;33112;-84
2024/03/18 04:52:51;;;;;;;0.05;0.05;;;;;;;7.16;50.94;100038.25;4456007;31;34892;-84
2024/03/18 04:55:19;;;;;;;0.47;0.45;;;;;;;7.32;50.57;100039.59;4472060;31;33079;-82
2024/03/18 04:57:45;;;;;;;0.10;0.10;;;;;;;7.25;50.61;100040.66;4471148;31;32850;-81
2024/03/18 05:00:14;;;;;;;0.03;0.03;;;;;;;7.07;51.61;100047.25;4454897;31;34655;-82
2024/03/18 05:02:41;;;;;;;0.10;0.10;;;;;;;7.19;50.91;100046.06;4464583;31;32999;-82
2024/03/18 05:05:11;;;;;;;2.08;0.52;;;;;;;7.24;51.05;100045.97;4487013;31;33134;-82
2024/03/18 05:07:40;;;;;;;0.10;0.10;;;;;;;7.16;51.64;100048.78;4456449;31;34366;-82
2024/03/18 05:10:08;;;;;;;0.50;0.50;;;;;;;7.26;51.72;100041.50;4471915;31;33227;-82
2024/03/18 05:12:35;;;;;;;0.80;0.80;;;;;;;7.30;51.37;100046.66;4484094;31;33898;-82
2024/03/18 05:15:02;;;;;;;0.30;0.30;;;;;;;7.33;51.50;100043.94;4473122;31;34784;-82
2024/03/18 05:17:31;;;;;;;0.08;0.08;;;;;;;7.37;51.23;100042.12;4479967;31;32021;-82
2024/03/18 05:19:57;;;;;;;0.00;0.00;;;;;;;7.49;51.04;100048.78;4476545;31;32856;-82
2024/03/18 05:22:24;;;;;;;1.92;1.05;;;;;;;7.72;50.36;100049.00;4471817;31;33252;-82
2024/03/18 05:24:50;;;;;;;1.10;1.08;;;;;;;7.59;50.48;100047.63;4470175;31;33726;-82
2024/03/18 05:27:19;;;;;;;2.60;1.35;;;;;;;7.67;50.34;100049.16;4469545;31;32473;-82
2024/03/18 05:29:46;;;;;;;0.73;0.35;;;;;;;7.68;49.90;100053.50;4479992;31;34284;-82
2024/03/18 05:32:15;;;;;;;0.88;0.80;;;;;;;7.57;50.47;100049.44;4464497;31;33437;-81
2024/03/18 05:34:44;;;;;;;0.00;0.00;;;;;;;7.59;50.12;100064.25;4469873;31;33869;-84
2024/03/18 05:37:11;;;;;;;0.15;0.15;;;;;;;7.73;49.67;100066.50;4461666;31;32248;-84
2024/03/18 05:39:38;;;;;;;0.60;0.60;;;;;;;7.96;48.96;100068.50;4464840;31;36211;-84
2024/03/18 05:42:05;;;;;;;0.22;0.22;;;;;;;7.69;49.77;100070.13;4486494;31;33715;-83
2024/03/18 05:44:32;;;;;;;2.72;0.65;;;;;;;7.62;50.42;100068.56;4470794;31;34788;-84
2024/03/18 05:46:59;;;;;;;0.52;0.40;;;;;;;7.76;50.16;100071.69;4465062;31;31987;-83
2024/03/18 05:49:26;;;;;;;0.10;0.10;;;;;;;7.79;50.20;100071.63;4467714;31;33174;-83
2024/03/18 05:51:54;;;;;;;0.45;0.45;;;;;;;7.70;50.15;100075.34;4455141;31;35312;-84
2024/03/18 05:54:21;;;;;;;0.20;0.20;;;;;;;7.68;50.39;100077.16;4461568;31;34186;-83
2024/03/18 05:56:48;;;;;;;0.10;0.10;;;;;;;7.80;50.08;100075.97;4476860;31;32452;-84
2024/03/18 05:59:15;;;;;;;3.20;1.90;;;;;;;7.78;49.84;100080.38;4472482;31;35098;-83
2024/03/18 06:01:42;;;;;;;0.43;0.43;;;;;;;7.90;49.55;100074.78;4472665;31;33250;-82
2024/03/18 06:04:11;;;;;;;1.65;0.98;;;;;;;8.16;49.08;100075.78;4459048;31;34243;-82
2024/03/18 06:06:40;;;;;;;0.40;0.15;;;;;;;7.98;49.39;100078.97;4487359;31;33040;-83
2024/03/18 06:09:07;;;;;;;0.10;0.10;;;;;;;8.20;48.62;100077.44;4471012;31;32384;-83
2024/03/18 06:11:34;;;;;;;0.20;0.20;;;;;;;8.37;48.33;100069.94;4459642;31;33414;-81
2024/03/18 06:14:01;;;;;;;0.20;0.20;;;;;;;7.97;49.53;100064.94;4485817;31;34441;-85
2024/03/18 06:16:28;;;;;;;0.30;0.30;;;;;;;7.98;49.23;100060.56;4474529;31;32401;-84
2024/03/18 06:18:55;;;;;;;0.13;0.13;;;;;;;8.13;49.10;100057.50;4455852;31;34842;-82
2024/03/18 06:21:27;;;;;;;0.10;0.10;;;;;;;8.16;49.16;100057.37;4468640;31;32989;-81
2024/03/18 06:24:05;;;;;;;1.17;1.08;;;;;;;8.18;48.73;100060.84;4483970;31;33847;-82
2024/03/18 06:26:31;;;;;;;0.03;0.03;;;;;;;8.21;48.99;100052.84;4459619;31;30199;-81
2024/03/18 06:28:58;;;;;;;0.65;0.65;;;;;;;8.41;48.48;100047.91;4462950;31;33103;-83
2024/03/18 06:31:27;;;;;;;0.90;0.75;;;;;;;8.17;49.36;100035.47;4485434;31;34019;-80
2024/03/18 06:33:53;;;;;;;0.90;0.90;;;;;;;8.45;48.63;100036.38;4482765;31;33691;-81
2024/03/18 06:36:20;;;;;;;0.22;0.22;;;;;;;8.31;48.70;100033.28;4475820;31;33222;-81
2024/03/18 06:38:47;;;;;;;0.17;0.17;;;;;;;8.64;48.57;100027.88;4468189;31;34512;-81
2024/03/18 06:41:14;;;;;;;0.52;0.52;;;;;;;8.84;48.55;100025.47;4483176;31;34331;-80
2024/03/18 06:43:41;;;;;;;2.10;0.50;;;;;;;8.73;48.21;100024.94;4458187;31;34500;-81
2024/03/18 06:46:09;;;;;;;0.10;0.00;;;;;;;9.02;47.94;100025.75;4473450;31;32024;-81
2024/03/18 06:48:36;;;;;;;0.17;0.17;;;;;;;8.55;48.31;100028.19;4484123;31;35000;-81
2024/03/18 06:51:03;;;;;;;1.05;0.60;;;;;;;8.46;48.50;100024.06;4472291;31;35284;-81
2024/03/18 06:53:29;;;;;;;0.32;0.22;;;;;;;8.57;48.66;100019.31;4481819;31;33847;-80
2024/03/18 06:55:56;;;;;;;0.28;0.20;;;;;;;8.67;48.99;100017.25;4469407;31;32101;-81
2024/03/18 06:58:26;;;;;;;0.20;0.20;;;;;;;8.84;48.00;100012.31;4469918;31;33166;-81
2024/03/18 07:00:54;;;;;;;2.00;0.45;;;;;;;9.12;47.71;100014.00;4472343;31;33257;-81
2024/03/18 07:03:21;;;;;;;0.85;0.85;;;;;;;9.58;46.55;100004.47;4473120;31;34548;-80
2024/03/18 07:05:49;;;;;;;0.32;0.32;;;;;;;9.56;47.00;100008.94;4484629;31;33036;-80
2024/03/18 07:08:16;;;;;;;2.78;2.15;;;;;;;9.35;46.51;100006.16;4471698;31;33004;-81
2024/03/18 07:10:42;;;;;;;0.45;0.45;;;;;;;9.56;46.81;100007.16;4463387;31;32489;-81
2024/03/18 07:13:09;;;;;;;2.70;1.95;;;;;;;9.68;45.69;100000.56;4464291;31;34455;-81
2024/03/18 07:15:36;;;;;;;1.15;1.12;;;;;;;9.72;46.00;100004.81;4470656;31;32413;-81
2024/03/18 07:18:03;;;;;;;0.10;0.10;;;;;;;9.82;45.34;99993.00;4471404;31;32894;-81
2024/03/18 07:20:30;;;;;;;0.82;0.82;;;;;;;10.24;45.40;100001.09;4471768;31;35286;-82
2024/03/18 07:22:57;;;;;;;3.78;1.90;;;;;;;10.28;44.71;99999.19;4471605;31;33724;-82
2024/03/18 07:25:23;;;;;;;0.47;0.35;;;;;;;10.17;43.82;99996.09;4471740;31;33699;-82
2024/03/18 07:27:50;;;;;;;0.70;0.40;;;;;;;10.21;43.17;100005.63;4468820;31;33440;-81
2024/03/18 07:30:17;;;;;;;0.17;0.17;;;;;;;10.23;43.45;100004.62;4456354;31;33709;-80
2024/03/18 07:32:44;;;;;;;0.55;0.47;;;;;;;10.67;42.90;100003.78;4470973;31;32017;-81
2024/03/18 07:35:13;;;;;;;0.17;0.17;;;;;;;10.54;43.26;100002.56;4454481;31;34984;-81
2024/03/18 07:37:39;;;;;;;1.92;1.15;;;;;;;10.29;44.10;100014.09;4482986;31;33562;-81
2024/03/18 07:40:08;;;;;;;1.70;1.42;;;;;;;10.72;43.54;100007.09;4467373;31;34228;-81
2024/03/18 07:42:35;;;;;;;0.50;0.47;;;;;;;10.57;43.14;100007.72;4468403;31;32965;-81
2024/03/18 07:45:02;;;;;;;1.02;0.98;;;;;;;10.65;43.19;100000.37;4473891;31;33967;-81
2024/03/18 07:47:28;;;;;;;0.35;0.35;;;;;;;10.86;43.46;99999.47;4458732;31;32356;-80
2024/03/18 07:49:56;;;;;;;1.55;0.75;;;;;;;11.13;42.81;99996.59;4472253;31;33079;-81
2024/03/18 07:52:22;;;;;;;0.30;0.30;;;;;;;11.10;43.52;99994.94;4477646;31;33821;-80
2024/03/18 07:54:49;;;;;;;3.53;1.95;;;;;;;11.23;43.25;99997.91;4473088;31;33563;-81
2024/03/18 07:57:16;;;;;;;0.32;0.32;;;;;;;11.27;41.45;99994.22;4441378;31;34464;-81
2024/03/18 07:59:43;;;;;;;0.35;0.35;;;;;;;11.13;41.48;100001.88;4463899;31;34252;-81
2024/03/18 08:02:09;;;;;;;1.30;1.20;;;;;;;11.54;41.79;100008.88;4457818;31;33648;-81
2024/03/18 08:04:36;;;;;;;0.28;0.28;;;;;;;11.82;41.34;99994.44;4466456;31;34247;-82
2024/03/18 08:07:03;;;;;;;1.17;0.95;;;;;;;11.70;41.25;99993.19;4468021;31;33033;-81
2024/03/18 08:09:31;;;;;;;0.90;0.90;;;;;;;11.78;40.92;99990.19;4461784;31;33093;-82
2024/03/18 08:11:58;;;;;;;0.90;0.68;;;;;;;11.75;41.08;99987.69;4442009;31;34394;-81
2024/03/18 08:14:24;;;;;;;1.17;0.60;;;;;;;11.93;39.95;99986.88;4450530;31;34855;-81
2024/03/18 08:16:51;;;;;;;0.08;0.08;;;;;;;11.91;39.58;99980.78;4457668;31;33553;-80
2024/03/18 08:19:18;;;;;;;0.40;0.40;;;;;;;11.93;39.95;99978.94;4479593;31;34467;-81
2024/03/18 08:21:44;;;;;;;0.57;0.57;;;;;;;12.10;39.87;99972.84;4473189;31;33495;-81
2024/03/18 08:24:11;;;;;;;0.80;0.70;;;;;;;12.10;39.72;99979.91;4463046;31;32509;-81
2024/03/18 08:26:38;;;;;;;0.10;0.10;;;;;;;12.25;39.35;99980.06;4445082;31;34659;-81
2024/03/18 08:29:04;;;;;;;2.55;1.55;;;;;;;11.98;38.76;99970.78;4483935;31;34736;-82
2024/03/18 08:31:31;;;;;;;0.10;0.10;;;;;;;12.22;37.16;99976.69;4463280;31;33767;-81
2024/03/18 08:33:59;;;;;;;0.30;0.20;;;;;;;12.63;35.19;99965.88;4454373;31;32157;-80
2024/03/18 08:36:28;;;;;;;0.47;0.47;;;;;;;12.23;37.29;99986.34;4467575;31;33772;-80
2024/03/18 08:38:57;;;;;;;0.65;0.65;;;;;;;12.41;36.91;99979.31;4464862;31;33620;-80
2024/03/18 08:41:24;;;;;;;0.00;0.00;;;;;;;12.19;37.49;99982.12;4460316;31;32558;-80
2024/03/18 08:43:51;;;;;;;0.25;0.25;;;;;;;12.29;36.84;99981.62;4469674;31;31943;-81
2024/03/18 08:46:17;;;;;;;0.05;0.05;;;;;;;12.55;35.64;99971.56;4460188;32;33261;-80
2024/03/18 08:48:44;;;;;;;0.10;0.10;;;;;;;12.45;35.85;99973.81;4433407;32;35254;-81
2024/03/18 08:51:11;;;;;;;0.00;0.00;;;;;;;12.99;35.18;99966.69;4447800;32;33878;-81
2024/03/18 08:53:37;;;;;;;0.10;0.10;;;;;;;13.30;33.18;99965.16;4434588;32;32116;-80
2024/03/18 08:56:05;;;;;;;0.03;0.03;;;;;;;13.22;34.80;99962.03;4454279;32;36681;-80
2024/03/18 08:58:32;;;;;;;0.20;0.20;;;;;;;12.82;33.89;99962.25;4446535;32;33798;-80
2024/03/18 09:00:58;;;;;;;0.10;0.10;;;;;;;12.49;34.87;99956.84;4448245;32;33550;-80
2024/03/18 09:03:25;;;;;;;0.00;0.00;;;;;;;12.48;35.07;99965.69;4433778;32;34239;-80
2024/03/18 09:05:55;;;;;;;0.85;0.62;;;;;;;12.43;35.13;99959.75;4461568;32;33889;-80
2024/03/18 09:08:22;;;;;;;0.03;0.03;;;;;;;12.55;34.99;99953.88;4434443;32;32839;-80
2024/03/18 09:10:49;;;;;;;0.65;0.65;;;;;;;12.40;35.13;99951.12;4445113;32;33658;-80
2024/03/18 09:13:16;;;;;;;0.10;0.10;;;;;;;12.17;35.32;99962.81;4446210;32;33320;-80
2024/03/18 09:15:43;;;;;;;0.20;0.20;;;;;;;12.10;35.17;99961.38;4461173;32;34524;-80
2024/03/18 09:18:11;;;;;;;2.62;0.47;;;;;;;11.87;35.55;99951.88;4447750;32;33952;-80
2024/03/18 09:20:39;;;;;;;0.05;0.05;;;;;;;11.68;35.97;99950.06;4433228;32;33401;-80
2024/03/18 09:23:09;;;;;;;0.15;0.15;;;;;;;11.66;36.03;99956.34;4448027;32;31573;-80
2024/03/18 09:25:36;;;;;;;0.17;0.17;;;;;;;11.71;36.23;99954.34;4429865;32;33852;-80
2024/03/18 09:28:02;;;;;;;1.35;0.88;;;;;;;11.58;36.33;99956.69;4439160;32;33604;-80
2024/03/18 09:30:31;;;;;;;0.20;0.20;;;;;;;11.54;36.62;99960.44;4445769;32;33399;-80
2024/03/18 09:32:59;;;;;;;0.00;0.00;;;;;;;11.29;37.12;99955.34;4447292;32;34504;-80
2024/03/18 09:35:25;;;;;;;3.35;0.80;;;;;;;11.29;37.40;99960.63;4434620;32;32370;-80
2024/03/18 09:37:51;;;;;;;0.35;0.13;;;;;;;11.27;38.96;99957.22;4449216;32;34009;-81
2024/03/18 09:40:18;;;;;;;0.00;0.00;;;;;;;11.46;37.71;99944.88;4460496;32;35470;-80
2024/03/18 09:42:45;;;;;;;0.22;0.22;;;;;;;11.86;37.29;99945.72;4461476;32;34911;-81
2024/03/18 09:45:15;;;;;;;0.30;0.25;;;;;;;11.90;37.15;99935.88;4445844;31;33363;-81
2024/03/18 09:47:45;;;;;;;1.12;0.75;;;;;;;11.94;36.77;99929.50;4472471;31;34968;-80
2024/03/18 09:50:16;;;;;;;0.47;0.47;;;;;;;12.51;36.57;99919.69;4485353;31;34745;-81
2024/03/18 09:52:46;;;;;;;1.83;0.93;;;;;;;12.67;36.64;99911.81;4469695;31;32992;-80
2024/03/18 09:55:24;;;;;;;1.65;0.70;;;;;;;13.15;35.43;99907.56;4477062;31;30529;-80
2024/03/18 09:57:52;;;;;;;1.37;1.17;;;;;;;13.72;35.36;99902.75;4472176;31;34349;-80
2024/03/18 10:00:20;;;;;;;1.23;1.12;;;;;;;13.95;33.24;99897.03;4482071;31;33939;-80
2024/03/18 10:02:47;;;;;;;0.43;0.43;;;;;;;13.59;33.82;99897.28;4456691;31;34257;-80
2024/03/18 10:05:14;;;;;;;0.65;0.65;;;;;;;13.29;34.97;99907.72;4474303;31;33227;-81
2024/03/18 10:07:43;;;;;;;0.65;0.65;;;;;;;13.40;34.96;99892.13;4458498;31;33412;-80
2024/03/18 10:10:20;;;;;;;0.10;0.10;;;;;;;13.57;35.69;99893.84;4471829;31;34822;-80
2024/03/18 10:12:50;;;;;;;2.20;0.40;;;;;;;13.44;33.58;99885.72;4478011;31;33021;-80
2024/03/18 10:15:17;;;;;;;0.00;0.00;;;;;;;13.19;35.04;99882.59;4466929;31;34062;-80
2024/03/18 10:17:44;;;;;;;0.35;0.35;;;;;;;13.60;33.24;99882.22;4494040;31;34695;-80
2024/03/18 10:20:20;;;;;;;0.57;0.30;;;;;;;13.37;34.50;99880.81;4454754;31;33300;-80
2024/03/18 10:22:48;;;;;;;0.00;0.00;;;;;;;13.95;33.15;99867.81;4454069;31;34901;-80
2024/03/18 10:25:24;;;;;;;1.50;0.68;;;;;;;13.98;32.37;99872.13;4486457;31;33568;-80
2024/03/18 10:27:53;;;;;;;0.00;0.00;;;;;;;13.95;31.51;99878.44;4472828;31;33755;-80
2024/03/18 10:30:20;;;;;;;0.40;0.40;;;;;;;13.79;32.05;99877.59;4484849;31;33486;-80
2024/03/18 10:32:47;;;;;;;0.20;0.20;;;;;;;13.61;33.67;99883.91;4465923;31;32816;-80
2024/03/18 10:35:20;;;;;;;0.00;0.00;;;;;;;14.03;32.78;99884.19;4475587;31;32362;-79
2024/03/18 10:37:48;;;;;;;;;;;;;;;14.39;31.12;99874.22;4457312;31;33163;-80
2024/03/18 10:40:29;;;;;;;0.25;0.25;;;;;;;14.59;31.35;99877.44;4461171;31;33142;-80
2024/03/18 10:42:58;;;;;;;0.20;0.20;;;;;;;14.34;31.37;99874.47;4487101;31;33556;-80
2024/03/18 10:45:27;;;;;;;0.10;0.10;;;;;;;14.84;31.28;99876.81;4470198;31;33628;-80
2024/03/18 10:47:55;;;;;;;0.00;0.00;;;;;;;14.37;32.45;99873.44;4470788;31;33868;-80
2024/03/18 10:50:22;;;;;;;0.57;0.20;;;;;;;14.74;30.70;99867.69;4472834;31;31585;-80
2024/03/18 10:52:50;;;;;;;0.00;0.00;;;;;;;14.33;31.33;99872.75;4457888;31;34626;-79
2024/03/18 10:55:18;;;;;;;0.05;0.05;;;;;;;14.18;31.28;99878.94;4468127;31;33053;-80
2024/03/18 10:57:47;;;;;;;0.60;0.60;;;;;;;13.99;32.48;99864.06;4465113;31;34663;-80
2024/03/18 11:00:18;;;;;;;0.50;0.50;;;;;;;14.47;31.04;99870.13;4465571;31;34856;-80
2024/03/18 11:03:13;;;;;;;0.00;0.00;;;;;;;14.11;32.25;99867.84;4481809;31;33899;-80
2024/03/18 11:06:11;;;;;;;1.75;0.57;;;;;;;13.87;32.52;99870.06;4461133;31;32105;-80
2024/03/18 11:08:40;;;;;;;2.62;0.70;;;;;;;14.68;30.89;99859.25;4483359;31;33596;-80
2024/03/18 11:11:14;;;;;;;0.28;0.28;;;;;;;15.23;30.17;99858.53;4487056;31;33690;-80
2024/03/18 11:13:42;;;;;;;0.30;0.30;;;;;;;15.36;29.43;99849.69;4457210;31;32026;-80
2024/03/18 11:16:11;;;;;;;1.17;0.35;;;;;;;14.79;30.69;99851.47;4466954;31;33623;-80
2024/03/18 11:18:43;;;;;;;0.00;0.00;;;;;;;15.21;29.53;99844.47;4464027;31;33727;-80
2024/03/18 11:21:16;;;;;;;0.20;0.20;;;;;;;15.09;29.60;99835.44;4482900;31;34632;-80
2024/03/18 11:23:43;;;;;;;0.20;0.17;;;;;;;14.62;29.63;99851.59;4481881;31;34199;-80
2024/03/18 11:26:11;;;;;;;0.20;0.20;;;;;;;14.85;30.98;99829.81;4469444;31;34990;-80
2024/03/18 11:28:41;;;;;;;0.15;0.15;;;;;;;14.87;31.30;99840.37;4468950;31;34066;-80
2024/03/18 11:31:09;;;;;;;0.32;0.32;;;;;;;15.18;29.00;99837.53;4465562;31;33105;-80
2024/03/18 11:33:37;;;;;;;0.43;0.43;;;;;;;15.14;29.96;99827.19;4476338;31;32217;-80
2024/03/18 11:36:04;;;;;;;1.30;1.02;;;;;;;15.49;28.25;99817.00;4456806;31;33177;-80